sensor_id;sensor_type;location;lat;lon;timestamp;temperature;humidity
31129;DHT22;17777;48.770;8.944;2024-01-25T00:01:18;14.60;52.80
31129;DHT22;17777;48.770;8.944;2024-01-25T00:03:44;14.60;52.80
31129;DHT22;17777;48.770;8.944;2024-01-25T00:06:10;14.60;52.90
31129;DHT22;17777;48.770;8.944;2024-01-25T00:08:36;14.60;52.90
31129;DHT22;17777;48.770;8.944;2024-01-25T00:11:02;14.60;52.90
31129;DHT22;17777;48.770;8.944;2024-01-25T00:13:28;14.60;52.90
31129;DHT22;17777;48.770;8.944;2024-01-25T00:15:54;14.60;53.00
31129;DHT22;17777;48.770;8.944;2024-01-25T00:18:20;14.60;53.00
31129;DHT22;17777;48.770;8.944;2024-01-25T00:20:47;14.60;53.00
31129;DHT22;17777;48.770;8.944;2024-01-25T00:23:12;14.60;53.70
31129;DHT22;17777;48.770;8.944;2024-01-25T00:25:38;14.60;53.70
31129;DHT22;17777;48.770;8.944;2024-01-25T00:28:04;14.60;53.10
31129;DHT22;17777;48.770;8.944;2024-01-25T00:30:30;14.60;53.10
31129;DHT22;17777;48.770;8.944;2024-01-25T00:32:57;14.60;53.10
31129;DHT22;17777;48.770;8.944;2024-01-25T00:35:26;14.60;53.10
31129;DHT22;17777;48.770;8.944;2024-01-25T00:37:52;14.60;53.10
31129;DHT22;17777;48.770;8.944;2024-01-25T00:40:19;14.60;53.20
31129;DHT22;17777;48.770;8.944;2024-01-25T00:42:46;14.60;53.20
31129;DHT22;17777;48.770;8.944;2024-01-25T00:45:19;14.60;53.20
31129;DHT22;17777;48.770;8.944;2024-01-25T00:47:46;14.60;53.20
31129;DHT22;17777;48.770;8.944;2024-01-25T00:50:13;14.60;53.20
31129;DHT22;17777;48.770;8.944;2024-01-25T00:52:39;14.60;53.30
31129;DHT22;17777;48.770;8.944;2024-01-25T00:55:06;14.60;53.30
31129;DHT22;17777;48.770;8.944;2024-01-25T00:57:32;14.60;53.30
31129;DHT22;17777;48.770;8.944;2024-01-25T00:59:59;14.60;53.30
31129;DHT22;17777;48.770;8.944;2024-01-25T01:02:27;14.60;53.40
31129;DHT22;17777;48.770;8.944;2024-01-25T01:04:59;14.60;53.40
31129;DHT22;17777;48.770;8.944;2024-01-25T01:07:26;14.60;53.40
31129;DHT22;17777;48.770;8.944;2024-01-25T01:09:52;14.60;53.50
31129;DHT22;17777;48.770;8.944;2024-01-25T01:12:17;14.60;53.50
31129;DHT22;17777;48.770;8.944;2024-01-25T01:14:43;14.60;53.60
31129;DHT22;17777;48.770;8.944;2024-01-25T01:17:09;14.60;53.60
31129;DHT22;17777;48.770;8.944;2024-01-25T01:19:35;14.60;53.70
31129;DHT22;17777;48.770;8.944;2024-01-25T01:22:01;14.60;53.70
31129;DHT22;17777;48.770;8.944;2024-01-25T01:24:26;14.60;53.60
31129;DHT22;17777;48.770;8.944;2024-01-25T01:26:52;14.60;53.60
31129;DHT22;17777;48.770;8.944;2024-01-25T01:29:18;14.60;53.60
31129;DHT22;17777;48.770;8.944;2024-01-25T01:31:44;14.60;53.50
31129;DHT22;17777;48.770;8.944;2024-01-25T01:34:10;14.60;53.50
31129;DHT22;17777;48.770;8.944;2024-01-25T01:36:38;14.60;53.40
31129;DHT22;17777;48.770;8.944;2024-01-25T01:39:04;14.60;53.40
31129;DHT22;17777;48.770;8.944;2024-01-25T01:41:29;14.50;53.50
31129;DHT22;17777;48.770;8.944;2024-01-25T01:43:56;14.50;53.50
31129;DHT22;17777;48.770;8.944;2024-01-25T01:46:34;14.50;53.50
31129;DHT22;17777;48.770;8.944;2024-01-25T01:49:04;14.50;53.50
31129;DHT22;17777;48.770;8.944;2024-01-25T01:51:31;14.50;53.50
31129;DHT22;17777;48.770;8.944;2024-01-25T01:53:58;14.50;53.50
31129;DHT22;17777;48.770;8.944;2024-01-25T01:56:27;14.50;53.50
31129;DHT22;17777;48.770;8.944;2024-01-25T01:58:57;14.50;53.40
31129;DHT22;17777;48.770;8.944;2024-01-25T02:01:28;14.40;53.40
31129;DHT22;17777;48.770;8.944;2024-01-25T02:03:54;14.40;53.40
31129;DHT22;17777;48.770;8.944;2024-01-25T02:06:23;14.40;53.50
31129;DHT22;17777;48.770;8.944;2024-01-25T02:08:49;14.40;53.40
31129;DHT22;17777;48.770;8.944;2024-01-25T02:11:17;14.40;53.40
31129;DHT22;17777;48.770;8.944;2024-01-25T02:13:43;14.40;53.50
31129;DHT22;17777;48.770;8.944;2024-01-25T02:16:09;14.40;53.50
31129;DHT22;17777;48.770;8.944;2024-01-25T02:18:35;14.40;53.50
31129;DHT22;17777;48.770;8.944;2024-01-25T02:21:01;14.30;53.50
31129;DHT22;17777;48.770;8.944;2024-01-25T02:23:27;14.40;53.50
31129;DHT22;17777;48.770;8.944;2024-01-25T02:25:53;14.30;53.50
31129;DHT22;17777;48.770;8.944;2024-01-25T02:28:19;14.30;53.40
31129;DHT22;17777;48.770;8.944;2024-01-25T02:30:44;14.30;53.40
31129;DHT22;17777;48.770;8.944;2024-01-25T02:33:10;14.30;53.50
31129;DHT22;17777;48.770;8.944;2024-01-25T02:35:37;14.30;53.50
31129;DHT22;17777;48.770;8.944;2024-01-25T02:38:03;14.30;53.60
31129;DHT22;17777;48.770;8.944;2024-01-25T02:40:29;14.20;53.60
31129;DHT22;17777;48.770;8.944;2024-01-25T02:42:55;14.20;53.60
31129;DHT22;17777;48.770;8.944;2024-01-25T02:45:22;14.20;53.70
31129;DHT22;17777;48.770;8.944;2024-01-25T02:47:49;14.20;53.80
31129;DHT22;17777;48.770;8.944;2024-01-25T02:50:15;14.10;53.80
31129;DHT22;17777;48.770;8.944;2024-01-25T02:52:41;14.10;53.80
31129;DHT22;17777;48.770;8.944;2024-01-25T02:55:07;14.10;54.00
31129;DHT22;17777;48.770;8.944;2024-01-25T02:57:33;14.00;54.60
31129;DHT22;17777;48.770;8.944;2024-01-25T02:59:59;14.10;54.00
31129;DHT22;17777;48.770;8.944;2024-01-25T03:02:25;14.00;54.00
31129;DHT22;17777;48.770;8.944;2024-01-25T03:04:51;14.00;54.00
31129;DHT22;17777;48.770;8.944;2024-01-25T03:07:17;14.00;54.00
31129;DHT22;17777;48.770;8.944;2024-01-25T03:09:43;14.00;53.90
31129;DHT22;17777;48.770;8.944;2024-01-25T03:12:10;14.10;53.90
31129;DHT22;17777;48.770;8.944;2024-01-25T03:14:36;14.10;54.00
31129;DHT22;17777;48.770;8.944;2024-01-25T03:17:02;14.00;53.90
31129;DHT22;17777;48.770;8.944;2024-01-25T03:19:28;14.00;53.90
31129;DHT22;17777;48.770;8.944;2024-01-25T03:21:54;14.00;53.90
31129;DHT22;17777;48.770;8.944;2024-01-25T03:24:23;14.00;53.80
31129;DHT22;17777;48.770;8.944;2024-01-25T03:26:50;14.00;53.80
31129;DHT22;17777;48.770;8.944;2024-01-25T03:29:16;14.00;53.80
31129;DHT22;17777;48.770;8.944;2024-01-25T03:31:41;14.00;53.80
31129;DHT22;17777;48.770;8.944;2024-01-25T03:34:07;14.00;53.90
31129;DHT22;17777;48.770;8.944;2024-01-25T03:36:33;14.00;53.90
31129;DHT22;17777;48.770;8.944;2024-01-25T03:38:59;14.00;53.90
31129;DHT22;17777;48.770;8.944;2024-01-25T03:41:25;14.00;53.90
31129;DHT22;17777;48.770;8.944;2024-01-25T03:43:50;14.00;53.90
31129;DHT22;17777;48.770;8.944;2024-01-25T03:46:17;14.10;54.00
31129;DHT22;17777;48.770;8.944;2024-01-25T03:48:43;14.00;53.80
31129;DHT22;17777;48.770;8.944;2024-01-25T03:51:08;14.00;53.80
31129;DHT22;17777;48.770;8.944;2024-01-25T03:53:34;14.00;53.80
31129;DHT22;17777;48.770;8.944;2024-01-25T03:56:01;14.00;53.80
31129;DHT22;17777;48.770;8.944;2024-01-25T03:58:26;14.00;53.80
31129;DHT22;17777;48.770;8.944;2024-01-25T04:00:52;14.00;53.80
31129;DHT22;17777;48.770;8.944;2024-01-25T04:03:18;14.00;53.80
31129;DHT22;17777;48.770;8.944;2024-01-25T04:05:44;14.00;53.80
31129;DHT22;17777;48.770;8.944;2024-01-25T04:08:10;14.00;53.80
31129;DHT22;17777;48.770;8.944;2024-01-25T04:10:36;14.00;53.80
31129;DHT22;17777;48.770;8.944;2024-01-25T04:13:02;14.00;53.90
31129;DHT22;17777;48.770;8.944;2024-01-25T04:15:30;13.90;53.90
31129;DHT22;17777;48.770;8.944;2024-01-25T04:17:56;14.00;54.00
31129;DHT22;17777;48.770;8.944;2024-01-25T04:20:22;13.90;53.90
31129;DHT22;17777;48.770;8.944;2024-01-25T04:22:48;13.90;53.90
31129;DHT22;17777;48.770;8.944;2024-01-25T04:25:14;13.90;54.00
31129;DHT22;17777;48.770;8.944;2024-01-25T04:27:41;13.90;53.90
31129;DHT22;17777;48.770;8.944;2024-01-25T04:30:08;13.90;54.00
31129;DHT22;17777;48.770;8.944;2024-01-25T04:32:34;13.90;54.10
31129;DHT22;17777;48.770;8.944;2024-01-25T04:35:00;13.80;54.20
31129;DHT22;17777;48.770;8.944;2024-01-25T04:37:26;13.80;54.20
31129;DHT22;17777;48.770;8.944;2024-01-25T04:39:52;13.80;54.20
31129;DHT22;17777;48.770;8.944;2024-01-25T04:42:18;13.80;55.00
31129;DHT22;17777;48.770;8.944;2024-01-25T04:44:43;13.80;54.30
31129;DHT22;17777;48.770;8.944;2024-01-25T04:47:09;13.80;54.30
31129;DHT22;17777;48.770;8.944;2024-01-25T04:49:36;13.80;54.30
31129;DHT22;17777;48.770;8.944;2024-01-25T04:52:02;13.80;54.30
31129;DHT22;17777;48.770;8.944;2024-01-25T04:54:28;13.70;54.40
31129;DHT22;17777;48.770;8.944;2024-01-25T04:56:53;13.70;54.30
31129;DHT22;17777;48.770;8.944;2024-01-25T04:59:20;13.70;54.30
31129;DHT22;17777;48.770;8.944;2024-01-25T05:01:46;13.70;54.10
31129;DHT22;17777;48.770;8.944;2024-01-25T05:04:12;13.70;54.10
31129;DHT22;17777;48.770;8.944;2024-01-25T05:06:38;13.70;54.00
31129;DHT22;17777;48.770;8.944;2024-01-25T05:09:03;13.70;54.00
31129;DHT22;17777;48.770;8.944;2024-01-25T05:11:29;13.70;54.00
31129;DHT22;17777;48.770;8.944;2024-01-25T05:13:55;13.70;54.00
31129;DHT22;17777;48.770;8.944;2024-01-25T05:16:21;13.70;54.00
31129;DHT22;17777;48.770;8.944;2024-01-25T05:18:47;13.70;54.00
31129;DHT22;17777;48.770;8.944;2024-01-25T05:21:13;13.70;53.90
31129;DHT22;17777;48.770;8.944;2024-01-25T05:23:38;13.70;53.90
31129;DHT22;17777;48.770;8.944;2024-01-25T05:26:06;13.70;54.00
31129;DHT22;17777;48.770;8.944;2024-01-25T05:28:31;13.70;54.60
31129;DHT22;17777;48.770;8.944;2024-01-25T05:30:57;13.70;54.00
31129;DHT22;17777;48.770;8.944;2024-01-25T05:33:23;13.60;54.00
31129;DHT22;17777;48.770;8.944;2024-01-25T05:35:49;13.60;54.10
31129;DHT22;17777;48.770;8.944;2024-01-25T05:38:15;13.60;54.10
31129;DHT22;17777;48.770;8.944;2024-01-25T05:40:42;13.60;54.10
31129;DHT22;17777;48.770;8.944;2024-01-25T05:43:08;13.60;54.20
31129;DHT22;17777;48.770;8.944;2024-01-25T05:45:33;13.60;54.30
31129;DHT22;17777;48.770;8.944;2024-01-25T05:47:59;13.60;54.30
31129;DHT22;17777;48.770;8.944;2024-01-25T05:50:25;13.60;54.30
31129;DHT22;17777;48.770;8.944;2024-01-25T05:52:51;13.60;54.40
31129;DHT22;17777;48.770;8.944;2024-01-25T05:55:16;13.60;54.40
31129;DHT22;17777;48.770;8.944;2024-01-25T05:57:43;13.50;54.40
31129;DHT22;17777;48.770;8.944;2024-01-25T06:00:12;13.50;54.40
31129;DHT22;17777;48.770;8.944;2024-01-25T06:02:39;13.50;54.40
31129;DHT22;17777;48.770;8.944;2024-01-25T06:05:06;13.50;54.40
31129;DHT22;17777;48.770;8.944;2024-01-25T06:07:33;13.50;54.50
31129;DHT22;17777;48.770;8.944;2024-01-25T06:09:59;13.50;54.50
31129;DHT22;17777;48.770;8.944;2024-01-25T06:12:24;13.50;54.50
31129;DHT22;17777;48.770;8.944;2024-01-25T06:14:50;13.40;54.40
31129;DHT22;17777;48.770;8.944;2024-01-25T06:17:18;13.50;54.50
31129;DHT22;17777;48.770;8.944;2024-01-25T06:19:43;13.50;54.50
31129;DHT22;17777;48.770;8.944;2024-01-25T06:22:09;13.50;54.50
31129;DHT22;17777;48.770;8.944;2024-01-25T06:24:37;13.50;54.40
31129;DHT22;17777;48.770;8.944;2024-01-25T06:27:03;13.40;54.40
31129;DHT22;17777;48.770;8.944;2024-01-25T06:29:29;13.40;54.40
31129;DHT22;17777;48.770;8.944;2024-01-25T06:31:55;13.50;55.10
31129;DHT22;17777;48.770;8.944;2024-01-25T06:34:21;13.50;54.40
31129;DHT22;17777;48.770;8.944;2024-01-25T06:36:47;13.50;54.40
31129;DHT22;17777;48.770;8.944;2024-01-25T06:39:13;13.50;54.30
31129;DHT22;17777;48.770;8.944;2024-01-25T06:41:38;13.50;54.30
31129;DHT22;17777;48.770;8.944;2024-01-25T06:44:04;13.40;54.20
31129;DHT22;17777;48.770;8.944;2024-01-25T06:46:30;13.40;54.20
31129;DHT22;17777;48.770;8.944;2024-01-25T06:48:56;13.40;54.20
31129;DHT22;17777;48.770;8.944;2024-01-25T06:51:21;13.40;54.20
31129;DHT22;17777;48.770;8.944;2024-01-25T06:53:47;13.40;54.20
31129;DHT22;17777;48.770;8.944;2024-01-25T06:56:13;13.30;54.20
31129;DHT22;17777;48.770;8.944;2024-01-25T06:58:39;13.30;54.20
31129;DHT22;17777;48.770;8.944;2024-01-25T07:01:05;13.30;54.20
31129;DHT22;17777;48.770;8.944;2024-01-25T07:03:31;13.30;54.20
31129;DHT22;17777;48.770;8.944;2024-01-25T07:05:57;13.30;54.10
31129;DHT22;17777;48.770;8.944;2024-01-25T07:08:23;13.20;54.10
31129;DHT22;17777;48.770;8.944;2024-01-25T07:10:49;13.20;54.10
31129;DHT22;17777;48.770;8.944;2024-01-25T07:13:15;13.20;54.20
31129;DHT22;17777;48.770;8.944;2024-01-25T07:15:41;13.20;54.20
31129;DHT22;17777;48.770;8.944;2024-01-25T07:18:08;13.20;54.20
31129;DHT22;17777;48.770;8.944;2024-01-25T07:20:34;13.20;54.20
31129;DHT22;17777;48.770;8.944;2024-01-25T07:22:59;13.20;54.20
31129;DHT22;17777;48.770;8.944;2024-01-25T07:25:25;13.20;54.20
31129;DHT22;17777;48.770;8.944;2024-01-25T07:27:51;13.20;54.20
31129;DHT22;17777;48.770;8.944;2024-01-25T07:30:17;13.20;54.80
31129;DHT22;17777;48.770;8.944;2024-01-25T07:32:43;13.20;54.10
31129;DHT22;17777;48.770;8.944;2024-01-25T07:35:09;13.20;54.70
31129;DHT22;17777;48.770;8.944;2024-01-25T07:37:35;13.20;54.00
31129;DHT22;17777;48.770;8.944;2024-01-25T07:40:01;13.20;54.00
31129;DHT22;17777;48.770;8.944;2024-01-25T07:42:30;13.20;54.00
31129;DHT22;17777;48.770;8.944;2024-01-25T07:44:57;13.20;53.90
31129;DHT22;17777;48.770;8.944;2024-01-25T07:47:22;13.30;54.00
31129;DHT22;17777;48.770;8.944;2024-01-25T07:49:48;13.30;53.90
31129;DHT22;17777;48.770;8.944;2024-01-25T07:52:14;13.30;53.90
31129;DHT22;17777;48.770;8.944;2024-01-25T07:54:40;13.20;53.70
31129;DHT22;17777;48.770;8.944;2024-01-25T07:57:06;13.20;53.70
31129;DHT22;17777;48.770;8.944;2024-01-25T07:59:32;13.20;53.70
31129;DHT22;17777;48.770;8.944;2024-01-25T08:01:58;13.20;53.70
31129;DHT22;17777;48.770;8.944;2024-01-25T08:04:24;13.20;53.80
31129;DHT22;17777;48.770;8.944;2024-01-25T08:06:49;13.20;53.80
31129;DHT22;17777;48.770;8.944;2024-01-25T08:09:15;13.20;53.80
31129;DHT22;17777;48.770;8.944;2024-01-25T08:11:41;13.20;53.80
31129;DHT22;17777;48.770;8.944;2024-01-25T08:14:07;13.20;53.80
31129;DHT22;17777;48.770;8.944;2024-01-25T08:16:33;13.20;53.70
31129;DHT22;17777;48.770;8.944;2024-01-25T08:19:00;13.20;53.70
31129;DHT22;17777;48.770;8.944;2024-01-25T08:21:26;13.10;53.60
31129;DHT22;17777;48.770;8.944;2024-01-25T08:23:52;13.20;53.70
31129;DHT22;17777;48.770;8.944;2024-01-25T08:26:18;13.10;53.70
31129;DHT22;17777;48.770;8.944;2024-01-25T08:28:43;13.10;53.80
31129;DHT22;17777;48.770;8.944;2024-01-25T08:31:10;13.10;53.80
31129;DHT22;17777;48.770;8.944;2024-01-25T08:33:38;13.10;53.70
31129;DHT22;17777;48.770;8.944;2024-01-25T08:36:07;13.10;53.70
31129;DHT22;17777;48.770;8.944;2024-01-25T08:38:33;13.10;54.20
31129;DHT22;17777;48.770;8.944;2024-01-25T08:40:59;13.10;53.80
31129;DHT22;17777;48.770;8.944;2024-01-25T08:43:24;13.10;53.80
31129;DHT22;17777;48.770;8.944;2024-01-25T08:45:50;13.10;53.80
31129;DHT22;17777;48.770;8.944;2024-01-25T08:48:16;13.10;53.90
31129;DHT22;17777;48.770;8.944;2024-01-25T08:50:42;13.10;53.90
31129;DHT22;17777;48.770;8.944;2024-01-25T08:53:08;13.20;54.00
31129;DHT22;17777;48.770;8.944;2024-01-25T08:55:34;13.20;53.90
31129;DHT22;17777;48.770;8.944;2024-01-25T08:58:00;13.20;53.90
31129;DHT22;17777;48.770;8.944;2024-01-25T09:00:26;13.20;53.80
31129;DHT22;17777;48.770;8.944;2024-01-25T09:02:53;13.20;53.80
31129;DHT22;17777;48.770;8.944;2024-01-25T09:05:18;13.20;53.80
31129;DHT22;17777;48.770;8.944;2024-01-25T09:07:44;13.20;53.90
31129;DHT22;17777;48.770;8.944;2024-01-25T09:10:10;13.20;53.90
31129;DHT22;17777;48.770;8.944;2024-01-25T09:12:37;13.20;53.90
31129;DHT22;17777;48.770;8.944;2024-01-25T09:15:04;13.20;54.00
31129;DHT22;17777;48.770;8.944;2024-01-25T09:17:33;13.20;54.00
31129;DHT22;17777;48.770;8.944;2024-01-25T09:19:59;13.30;54.10
31129;DHT22;17777;48.770;8.944;2024-01-25T09:22:25;13.30;54.10
31129;DHT22;17777;48.770;8.944;2024-01-25T09:24:51;13.30;54.10
31129;DHT22;17777;48.770;8.944;2024-01-25T09:27:18;13.40;54.10
31129;DHT22;17777;48.770;8.944;2024-01-25T09:29:44;13.40;54.00
31129;DHT22;17777;48.770;8.944;2024-01-25T09:32:10;13.40;53.90
31129;DHT22;17777;48.770;8.944;2024-01-25T09:34:37;13.50;53.80
31129;DHT22;17777;48.770;8.944;2024-01-25T09:37:07;13.50;53.80
31129;DHT22;17777;48.770;8.944;2024-01-25T09:39:32;13.50;53.80
31129;DHT22;17777;48.770;8.944;2024-01-25T09:41:58;13.60;53.80
31129;DHT22;17777;48.770;8.944;2024-01-25T09:44:24;13.60;53.70
31129;DHT22;17777;48.770;8.944;2024-01-25T09:46:51;13.60;53.80
31129;DHT22;17777;48.770;8.944;2024-01-25T09:49:17;13.70;53.70
31129;DHT22;17777;48.770;8.944;2024-01-25T09:51:44;13.70;53.70
31129;DHT22;17777;48.770;8.944;2024-01-25T09:54:10;13.70;53.60
31129;DHT22;17777;48.770;8.944;2024-01-25T09:56:36;13.80;53.70
31129;DHT22;17777;48.770;8.944;2024-01-25T09:59:03;13.80;53.60
31129;DHT22;17777;48.770;8.944;2024-01-25T10:01:30;13.90;53.60
31129;DHT22;17777;48.770;8.944;2024-01-25T10:03:56;13.90;53.60
31129;DHT22;17777;48.770;8.944;2024-01-25T10:06:22;13.90;53.50
31129;DHT22;17777;48.770;8.944;2024-01-25T10:08:49;14.00;53.50
31129;DHT22;17777;48.770;8.944;2024-01-25T10:11:15;14.00;53.30
31129;DHT22;17777;48.770;8.944;2024-01-25T10:13:46;14.10;53.30
31129;DHT22;17777;48.770;8.944;2024-01-25T10:16:19;14.10;53.10
31129;DHT22;17777;48.770;8.944;2024-01-25T10:18:48;14.10;52.90
31129;DHT22;17777;48.770;8.944;2024-01-25T10:21:15;14.10;53.00
31129;DHT22;17777;48.770;8.944;2024-01-25T10:23:44;14.20;53.10
31129;DHT22;17777;48.770;8.944;2024-01-25T10:26:13;14.20;53.10
31129;DHT22;17777;48.770;8.944;2024-01-25T10:28:40;14.20;53.00
31129;DHT22;17777;48.770;8.944;2024-01-25T10:31:05;14.30;53.10
31129;DHT22;17777;48.770;8.944;2024-01-25T10:33:33;14.40;53.00
31129;DHT22;17777;48.770;8.944;2024-01-25T10:36:00;14.40;52.90
31129;DHT22;17777;48.770;8.944;2024-01-25T10:38:36;14.40;52.70
31129;DHT22;17777;48.770;8.944;2024-01-25T10:41:04;14.50;52.50
31129;DHT22;17777;48.770;8.944;2024-01-25T10:43:33;14.50;52.60
31129;DHT22;17777;48.770;8.944;2024-01-25T10:45:59;14.50;52.60
31129;DHT22;17777;48.770;8.944;2024-01-25T10:48:26;14.60;52.60
31129;DHT22;17777;48.770;8.944;2024-01-25T10:50:53;14.60;52.40
31129;DHT22;17777;48.770;8.944;2024-01-25T10:53:21;14.70;52.20
31129;DHT22;17777;48.770;8.944;2024-01-25T10:55:49;14.70;52.10
31129;DHT22;17777;48.770;8.944;2024-01-25T10:58:16;14.70;52.20
31129;DHT22;17777;48.770;8.944;2024-01-25T11:00:49;14.70;52.20
31129;DHT22;17777;48.770;8.944;2024-01-25T11:03:18;14.70;52.20
31129;DHT22;17777;48.770;8.944;2024-01-25T11:05:44;14.80;52.10
31129;DHT22;17777;48.770;8.944;2024-01-25T11:08:19;14.80;52.10
31129;DHT22;17777;48.770;8.944;2024-01-25T11:10:52;14.90;51.50
31129;DHT22;17777;48.770;8.944;2024-01-25T11:13:25;14.90;51.50
31129;DHT22;17777;48.770;8.944;2024-01-25T11:15:51;14.90;51.70
31129;DHT22;17777;48.770;8.944;2024-01-25T11:18:18;14.90;51.90
31129;DHT22;17777;48.770;8.944;2024-01-25T11:20:47;15.00;51.80
31129;DHT22;17777;48.770;8.944;2024-01-25T11:23:16;15.00;51.60
31129;DHT22;17777;48.770;8.944;2024-01-25T11:25:45;15.10;51.40
31129;DHT22;17777;48.770;8.944;2024-01-25T11:28:14;15.10;51.50
31129;DHT22;17777;48.770;8.944;2024-01-25T11:30:43;15.10;51.40
31129;DHT22;17777;48.770;8.944;2024-01-25T11:33:09;15.20;51.50
31129;DHT22;17777;48.770;8.944;2024-01-25T11:35:36;15.20;51.20
31129;DHT22;17777;48.770;8.944;2024-01-25T11:38:02;15.30;51.20
31129;DHT22;17777;48.770;8.944;2024-01-25T11:40:29;15.30;51.20
31129;DHT22;17777;48.770;8.944;2024-01-25T11:42:57;15.30;51.00
31129;DHT22;17777;48.770;8.944;2024-01-25T11:45:22;15.30;51.00
31129;DHT22;17777;48.770;8.944;2024-01-25T11:47:49;15.40;51.00
31129;DHT22;17777;48.770;8.944;2024-01-25T11:50:17;15.40;51.00
31129;DHT22;17777;48.770;8.944;2024-01-25T11:52:43;15.40;50.90
31129;DHT22;17777;48.770;8.944;2024-01-25T11:55:09;15.50;50.80
31129;DHT22;17777;48.770;8.944;2024-01-25T11:57:40;15.50;50.70
31129;DHT22;17777;48.770;8.944;2024-01-25T12:00:08;15.50;50.30
31129;DHT22;17777;48.770;8.944;2024-01-25T12:02:37;15.60;50.50
31129;DHT22;17777;48.770;8.944;2024-01-25T12:05:03;15.60;50.50
31129;DHT22;17777;48.770;8.944;2024-01-25T12:07:30;15.60;50.60
31129;DHT22;17777;48.770;8.944;2024-01-25T12:10:07;15.60;50.50
31129;DHT22;17777;48.770;8.944;2024-01-25T12:12:37;15.70;50.00
31129;DHT22;17777;48.770;8.944;2024-01-25T12:15:06;15.70;50.20
31129;DHT22;17777;48.770;8.944;2024-01-25T12:17:34;15.80;50.20
31129;DHT22;17777;48.770;8.944;2024-01-25T12:20:04;15.80;50.10
31129;DHT22;17777;48.770;8.944;2024-01-25T12:22:37;15.90;50.20
31129;DHT22;17777;48.770;8.944;2024-01-25T12:25:09;15.90;50.10
31129;DHT22;17777;48.770;8.944;2024-01-25T12:27:35;15.90;49.70
31129;DHT22;17777;48.770;8.944;2024-01-25T12:30:03;16.00;49.60
31129;DHT22;17777;48.770;8.944;2024-01-25T12:32:29;16.00;49.70
31129;DHT22;17777;48.770;8.944;2024-01-25T12:34:56;16.00;49.70
31129;DHT22;17777;48.770;8.944;2024-01-25T12:37:22;16.10;49.60
31129;DHT22;17777;48.770;8.944;2024-01-25T12:39:52;16.10;49.50
31129;DHT22;17777;48.770;8.944;2024-01-25T12:42:20;16.10;49.10
31129;DHT22;17777;48.770;8.944;2024-01-25T12:44:46;16.20;49.40
31129;DHT22;17777;48.770;8.944;2024-01-25T12:47:12;16.20;49.30
31129;DHT22;17777;48.770;8.944;2024-01-25T12:49:41;16.20;49.20
31129;DHT22;17777;48.770;8.944;2024-01-25T12:52:12;16.30;49.00
31129;DHT22;17777;48.770;8.944;2024-01-25T12:54:39;16.30;48.70
31129;DHT22;17777;48.770;8.944;2024-01-25T12:57:06;16.30;49.00
31129;DHT22;17777;48.770;8.944;2024-01-25T12:59:34;16.30;48.90
31129;DHT22;17777;48.770;8.944;2024-01-25T13:02:00;16.30;48.50
31129;DHT22;17777;48.770;8.944;2024-01-25T13:04:27;16.30;48.70
31129;DHT22;17777;48.770;8.944;2024-01-25T13:06:54;16.30;48.70
31129;DHT22;17777;48.770;8.944;2024-01-25T13:09:22;16.30;48.40
31129;DHT22;17777;48.770;8.944;2024-01-25T13:11:48;16.30;48.60
31129;DHT22;17777;48.770;8.944;2024-01-25T13:14:14;16.30;48.60
31129;DHT22;17777;48.770;8.944;2024-01-25T13:16:40;16.40;48.60
31129;DHT22;17777;48.770;8.944;2024-01-25T13:19:06;16.30;48.50
31129;DHT22;17777;48.770;8.944;2024-01-25T13:21:32;16.40;48.60
31129;DHT22;17777;48.770;8.944;2024-01-25T13:24:01;16.40;48.50
31129;DHT22;17777;48.770;8.944;2024-01-25T13:26:27;16.40;48.20
31129;DHT22;17777;48.770;8.944;2024-01-25T13:28:53;16.40;48.40
31129;DHT22;17777;48.770;8.944;2024-01-25T13:31:19;16.40;48.40
31129;DHT22;17777;48.770;8.944;2024-01-25T13:33:45;16.40;48.50
31129;DHT22;17777;48.770;8.944;2024-01-25T13:36:12;16.40;48.30
31129;DHT22;17777;48.770;8.944;2024-01-25T13:38:40;16.40;48.30
31129;DHT22;17777;48.770;8.944;2024-01-25T13:41:06;16.40;48.40
31129;DHT22;17777;48.770;8.944;2024-01-25T13:43:32;16.40;48.20
31129;DHT22;17777;48.770;8.944;2024-01-25T13:45:58;16.40;48.10
31129;DHT22;17777;48.770;8.944;2024-01-25T13:48:24;16.40;48.10
31129;DHT22;17777;48.770;8.944;2024-01-25T13:50:50;16.40;48.10
31129;DHT22;17777;48.770;8.944;2024-01-25T13:53:16;16.40;48.20
31129;DHT22;17777;48.770;8.944;2024-01-25T13:55:43;16.40;48.20
31129;DHT22;17777;48.770;8.944;2024-01-25T13:58:09;16.40;48.10
31129;DHT22;17777;48.770;8.944;2024-01-25T14:00:35;16.40;48.10
31129;DHT22;17777;48.770;8.944;2024-01-25T14:03:01;16.40;48.10
31129;DHT22;17777;48.770;8.944;2024-01-25T14:05:27;16.40;48.10
31129;DHT22;17777;48.770;8.944;2024-01-25T14:07:53;16.30;47.80
31129;DHT22;17777;48.770;8.944;2024-01-25T14:10:19;16.30;48.00
31129;DHT22;17777;48.770;8.944;2024-01-25T14:12:46;16.30;48.10
31129;DHT22;17777;48.770;8.944;2024-01-25T14:15:12;16.30;48.10
31129;DHT22;17777;48.770;8.944;2024-01-25T14:17:38;16.40;48.10
31129;DHT22;17777;48.770;8.944;2024-01-25T14:20:05;16.30;48.10
31129;DHT22;17777;48.770;8.944;2024-01-25T14:22:31;16.40;48.20
31129;DHT22;17777;48.770;8.944;2024-01-25T14:24:57;16.40;48.10
31129;DHT22;17777;48.770;8.944;2024-01-25T14:27:23;16.40;48.30
31129;DHT22;17777;48.770;8.944;2024-01-25T14:29:48;16.40;48.30
31129;DHT22;17777;48.770;8.944;2024-01-25T14:32:14;16.40;48.30
31129;DHT22;17777;48.770;8.944;2024-01-25T14:34:40;16.40;48.30
31129;DHT22;17777;48.770;8.944;2024-01-25T14:37:06;16.40;48.30
31129;DHT22;17777;48.770;8.944;2024-01-25T14:39:32;16.40;48.30
31129;DHT22;17777;48.770;8.944;2024-01-25T14:41:58;16.40;48.20
31129;DHT22;17777;48.770;8.944;2024-01-25T14:44:23;16.40;48.30
31129;DHT22;17777;48.770;8.944;2024-01-25T14:46:49;16.50;48.40
31129;DHT22;17777;48.770;8.944;2024-01-25T14:49:15;16.40;48.50
31129;DHT22;17777;48.770;8.944;2024-01-25T14:51:41;16.50;48.50
31129;DHT22;17777;48.770;8.944;2024-01-25T14:54:07;16.40;48.50
31129;DHT22;17777;48.770;8.944;2024-01-25T14:56:33;16.40;48.50
31129;DHT22;17777;48.770;8.944;2024-01-25T14:58:59;16.50;48.60
31129;DHT22;17777;48.770;8.944;2024-01-25T15:01:25;16.40;48.50
31129;DHT22;17777;48.770;8.944;2024-01-25T15:03:53;16.40;48.60
31129;DHT22;17777;48.770;8.944;2024-01-25T15:06:19;16.40;48.60
31129;DHT22;17777;48.770;8.944;2024-01-25T15:08:45;16.40;48.70
31129;DHT22;17777;48.770;8.944;2024-01-25T15:11:12;16.40;48.70
31129;DHT22;17777;48.770;8.944;2024-01-25T15:13:37;16.40;48.70
31129;DHT22;17777;48.770;8.944;2024-01-25T15:16:03;16.40;48.70
31129;DHT22;17777;48.770;8.944;2024-01-25T15:18:29;16.40;48.60
31129;DHT22;17777;48.770;8.944;2024-01-25T15:20:56;16.40;48.60
31129;DHT22;17777;48.770;8.944;2024-01-25T15:23:22;16.30;48.50
31129;DHT22;17777;48.770;8.944;2024-01-25T15:25:48;16.30;48.50